createdAt,value
2018-10-01T00:00:34.964Z,100799.84
2018-10-01T00:05:38.123Z,100801.16
2018-10-01T00:10:41.338Z,100799.61
2018-10-01T00:15:44.520Z,100801.92
2018-10-01T00:20:47.851Z,100799.73
2018-10-01T00:25:51.433Z,100805.02
2018-10-01T00:30:54.630Z,100797.42
2018-10-01T00:35:57.913Z,100789.83
2018-10-01T00:41:01.082Z,100792.30
2018-10-01T00:46:04.253Z,100781.56
2018-10-01T00:51:07.451Z,100781.28
2018-10-01T00:56:10.673Z,100779.45
2018-10-01T01:01:13.843Z,100778.81
2018-10-01T01:06:17.012Z,100786.22
2018-10-01T01:11:20.201Z,100780.59
2018-10-01T01:16:23.664Z,100778.17
2018-10-01T01:21:26.852Z,100778.98
2018-10-01T01:26:30.023Z,100774.48
2018-10-01T01:31:33.163Z,100772.05
2018-10-01T01:36:36.792Z,100769.06
2018-10-01T01:41:40.002Z,100768.84
2018-10-01T01:46:43.201Z,100766.03
2018-10-01T01:51:46.447Z,100765.03
2018-10-01T01:56:49.876Z,100764.94
2018-10-01T02:01:53.085Z,100766.16
2018-10-01T02:06:56.326Z,100770.58
2018-10-01T02:11:59.511Z,100771.95
2018-10-01T02:17:02.697Z,100772.27
2018-10-01T02:22:05.990Z,100767.45
2018-10-01T02:27:09.262Z,100767.97
2018-10-01T02:32:12.553Z,100780.95
2018-10-01T02:37:15.753Z,100768.45
2018-10-01T02:42:18.999Z,100770.14
2018-10-01T02:47:22.260Z,100771.12
2018-10-01T02:52:25.727Z,100762.36
2018-10-01T02:57:28.962Z,100746.59
2018-10-01T03:02:32.228Z,100740.77
2018-10-01T03:07:35.582Z,100737.95
2018-10-01T03:12:38.651Z,100738.34
2018-10-01T03:17:41.927Z,100731.13
2018-10-01T03:22:51.650Z,100732.87
2018-10-01T03:27:54.956Z,100731.33
2018-10-01T03:32:58.124Z,100730.80
2018-10-01T03:38:01.272Z,100725.99
2018-10-01T03:43:04.447Z,100728.52
2018-10-01T03:48:07.559Z,100737.47
2018-10-01T03:53:10.665Z,100739.53
2018-10-01T03:58:13.851Z,100729.44
2018-10-01T04:03:17.111Z,100724.87
2018-10-01T04:08:20.398Z,100720.83
2018-10-01T04:13:23.943Z,100721.54
2018-10-01T04:18:27.142Z,100721.67
2018-10-01T04:23:30.318Z,100723.13
2018-10-01T04:28:36.789Z,100725.81
2018-10-01T04:33:44.650Z,100728.45
2018-10-01T04:38:50.932Z,100732.07
2018-10-01T04:43:54.468Z,100725.14
2018-10-01T04:48:57.756Z,100733.05
2018-10-01T04:54:00.869Z,100733.47
2018-10-01T04:59:04.148Z,100730.09
2018-10-01T05:04:07.417Z,100731.28
2018-10-01T05:09:10.569Z,100732.97
2018-10-01T05:14:13.746Z,100741.73
2018-10-01T05:19:17.016Z,100751.62
2018-10-01T05:29:56.107Z,100738.93
2018-10-01T05:35:00.515Z,100742.83
2018-10-01T05:40:03.760Z,100730.98
2018-10-01T05:45:07.034Z,100741.94
2018-10-01T05:50:10.235Z,100735.93
2018-10-01T05:55:13.411Z,100747.88
2018-10-01T06:00:16.907Z,100758.83
2018-10-01T06:05:20.292Z,100758.03
2018-10-01T06:10:23.501Z,100757.42
2018-10-01T06:15:26.722Z,100761.11
2018-10-01T06:20:29.917Z,100763.36
2018-10-01T06:25:33.165Z,100765.33
2018-10-01T06:30:36.336Z,100768.69
2018-10-01T06:35:39.574Z,100770.31
2018-10-01T06:40:42.804Z,100768.16
2018-10-01T06:45:46.227Z,100756.70
2018-10-01T06:50:49.531Z,100759.72
2018-10-01T06:55:52.689Z,100759.93
2018-10-01T07:00:55.914Z,100767.48
2018-10-01T07:05:59.247Z,100767.47
2018-10-01T07:11:02.892Z,100773.25
2018-10-01T07:16:06.491Z,100768.92
2018-10-01T07:21:09.707Z,100778.60
2018-10-01T07:26:12.916Z,100785.36
2018-10-01T07:31:16.144Z,100795.92
2018-10-01T07:36:19.560Z,100798.10
2018-10-01T07:41:22.712Z,100801.27
2018-10-01T07:46:32.490Z,100791.84
2018-10-01T07:51:35.647Z,100792.25
2018-10-01T07:56:40.057Z,100792.42
2018-10-01T08:01:43.241Z,100802.19
2018-10-01T08:06:46.437Z,100806.47
2018-10-01T08:11:49.747Z,100810.06
2018-10-01T08:16:53.013Z,100822.95
2018-10-01T08:21:56.482Z,100821.41
2018-10-01T08:26:59.656Z,100823.47
2018-10-01T08:32:02.912Z,100820.48
2018-10-01T08:37:06.083Z,100819.38
2018-10-01T08:42:09.267Z,100835.91
2018-10-01T08:47:12.559Z,100834.42
2018-10-01T08:52:16.001Z,100844.55
2018-10-01T08:57:19.321Z,100840.64
2018-10-01T09:02:22.612Z,100836.59
2018-10-01T09:07:25.790Z,100833.39
2018-10-01T09:12:28.977Z,100828.23
2018-10-01T09:17:32.305Z,100818.38
2018-10-01T09:22:35.509Z,100831.98
2018-10-01T09:27:38.684Z,100838.37
2018-10-01T09:32:41.843Z,100837.98
2018-10-01T09:37:45.000Z,100835.48
2018-10-01T09:42:48.350Z,100831.30
2018-10-01T09:47:51.579Z,100832.61
2018-10-01T09:52:55.038Z,100831.14
2018-10-01T09:57:58.224Z,100827.89
2018-10-01T10:03:01.496Z,100830.11
2018-10-01T10:08:04.710Z,100828.45
2018-10-01T10:13:07.875Z,100832.44
2018-10-01T10:18:12.229Z,100828.25
2018-10-01T10:23:15.936Z,100825.44
2018-10-01T10:28:19.350Z,100830.36
2018-10-01T10:33:22.517Z,100834.56
2018-10-01T10:38:25.768Z,100829.94
2018-10-01T10:43:28.957Z,100832.44
2018-10-01T10:48:33.592Z,100836.72
2018-10-01T10:53:38.258Z,100843.67
2018-10-01T10:58:41.592Z,100848.70
2018-10-01T11:03:44.902Z,100857.23
2018-10-01T11:08:48.183Z,100864.97
2018-10-01T11:13:51.482Z,100875.13
2018-10-01T11:18:54.944Z,100862.75
2018-10-01T11:23:58.690Z,100869.23
2018-10-01T11:29:02.153Z,100865.01
2018-10-01T11:34:05.199Z,100867.94
2018-10-01T11:39:09.257Z,100864.38
2018-10-01T11:44:12.489Z,100870.13
2018-10-01T11:49:15.621Z,100866.55
2018-10-01T11:54:19.059Z,100859.16
2018-10-01T11:59:22.184Z,100859.84
2018-10-01T12:04:25.489Z,100850.08
2018-10-01T12:09:29.413Z,100856.80
2018-10-01T12:14:32.589Z,100856.41
2018-10-01T12:19:35.724Z,100863.22
2018-10-01T12:24:38.887Z,100863.89
2018-10-01T12:29:42.096Z,100865.50
2018-10-01T12:34:45.327Z,100860.17
2018-10-01T12:39:48.716Z,100866.19
2018-10-01T12:44:52.107Z,100854.72
2018-10-01T12:49:55.296Z,100861.33
2018-10-01T12:54:58.595Z,100859.34
2018-10-01T13:00:01.856Z,100862.78
2018-10-01T13:05:05.577Z,100869.86
2018-10-01T13:10:08.899Z,100864.83
2018-10-01T13:15:12.087Z,100868.62
2018-10-01T13:20:15.434Z,100872.44
2018-10-01T13:25:19.025Z,100877.37
2018-10-01T13:30:22.514Z,100877.22
2018-10-01T13:35:25.864Z,100863.63
2018-10-01T13:40:29.512Z,100870.06
2018-10-01T13:45:38.236Z,100877.84
2018-10-01T13:50:41.474Z,100874.56
2018-10-01T13:55:44.731Z,100912.98
2018-10-01T14:00:48.051Z,100896.16
2018-10-01T14:05:51.269Z,100889.74
2018-10-01T14:10:55.590Z,100897.03
2018-10-01T14:15:58.766Z,100892.59
2018-10-01T14:21:02.608Z,100896.76
2018-10-01T14:26:05.836Z,100895.33
2018-10-01T14:31:09.527Z,100903.37
2018-10-01T14:36:12.855Z,100902.69
2018-10-01T14:41:15.979Z,100907.00
2018-10-01T14:46:19.294Z,100911.64
2018-10-01T14:51:22.536Z,100914.11
2018-10-01T14:56:25.811Z,100910.92
2018-10-01T15:01:29.274Z,100908.09
2018-10-01T15:06:32.987Z,100906.72
2018-10-01T15:11:42.773Z,100908.25
2018-10-01T15:16:46.055Z,100909.27
2018-10-01T15:21:49.612Z,100917.52
2018-10-01T15:26:53.309Z,100923.75
2018-10-01T15:31:56.684Z,100919.50
2018-10-01T15:36:59.992Z,100920.61
2018-10-01T15:42:04.304Z,100924.67
2018-10-01T15:47:07.937Z,100929.55
2018-10-01T15:52:11.120Z,100932.48
2018-10-01T15:57:14.407Z,100936.69
2018-10-01T16:02:17.887Z,100943.22
2018-10-01T16:07:21.557Z,100941.13
2018-10-01T16:12:25.006Z,100956.94
2018-10-01T16:17:33.830Z,100966.70
2018-10-01T16:22:37.034Z,100965.36
2018-10-01T16:27:46.049Z,100969.56
2018-10-01T16:32:49.631Z,100976.59
2018-10-01T16:37:53.170Z,100987.62
2018-10-01T16:42:56.535Z,100983.23
2018-10-01T16:48:00.084Z,100992.58
2018-10-01T16:53:03.252Z,101005.80
2018-10-01T16:58:06.519Z,101004.28
2018-10-01T17:03:09.654Z,101016.98
2018-10-01T17:08:12.939Z,101020.65
2018-10-01T17:13:16.325Z,101035.92
2018-10-01T17:18:20.069Z,101037.89
2018-10-01T17:23:23.557Z,101048.53
2018-10-01T17:28:27.425Z,101060.07
2018-10-01T17:33:30.629Z,101068.05
2018-10-01T17:38:33.812Z,101071.49
2018-10-01T17:43:37.133Z,101083.99
2018-10-01T17:48:40.429Z,101093.83
2018-10-01T17:53:58.843Z,101091.77
2018-10-01T17:59:15.845Z,101098.70
2018-10-01T18:04:21.767Z,101106.66
2018-10-01T18:09:25.004Z,101112.94
2018-10-01T18:14:29.142Z,101124.73
2018-10-01T18:19:32.375Z,101125.23
2018-10-01T18:24:35.993Z,101133.45
2018-10-01T18:29:49.373Z,101127.45
2018-10-01T18:35:22.377Z,101146.70
2018-10-01T18:40:36.093Z,101157.78
2018-10-01T18:45:48.689Z,101161.27
2018-10-01T18:51:08.943Z,101152.19
2018-10-01T18:56:20.146Z,101161.48
2018-10-01T19:01:23.603Z,101160.20
2018-10-01T19:06:26.987Z,101165.96
2018-10-01T19:11:31.141Z,101168.77
2018-10-01T19:16:34.833Z,101173.47
2018-10-01T19:21:38.176Z,101163.32
2018-10-01T19:26:42.470Z,101176.93
2018-10-01T19:31:45.708Z,101172.59
2018-10-01T19:36:49.166Z,101179.52
2018-10-01T19:41:53.506Z,101183.78
2018-10-01T19:47:03.756Z,101190.67
2018-10-01T19:52:06.863Z,101193.53
2018-10-01T19:57:11.075Z,101196.55
2018-10-01T20:02:14.306Z,101199.05
2018-10-01T20:07:17.913Z,101209.95
2018-10-01T20:12:21.343Z,101219.80
2018-10-01T20:17:24.800Z,101210.98
2018-10-01T20:22:30.107Z,101220.98
2018-10-01T20:27:36.340Z,101226.13
2018-10-01T20:32:42.679Z,101233.04
2018-10-01T20:37:48.913Z,101234.17
2018-10-01T20:42:53.987Z,101228.85
2018-10-01T20:47:59.451Z,101233.41
2018-10-01T20:53:07.003Z,101234.88
2018-10-01T20:58:12.799Z,101241.38
2018-10-01T21:03:17.574Z,101244.14
2018-10-01T21:08:20.969Z,101240.77
2018-10-01T21:13:24.167Z,101247.39
2018-10-01T21:18:27.407Z,101247.20
2018-10-01T21:23:30.535Z,101251.72
2018-10-01T21:28:33.708Z,101259.18
2018-10-01T21:33:37.040Z,101257.08
2018-10-01T21:38:41.115Z,101258.24
2018-10-01T21:43:44.279Z,101264.84
2018-10-01T21:48:47.499Z,101256.09
2018-10-01T21:53:50.722Z,101257.59
2018-10-01T21:58:54.511Z,101258.59
2018-10-01T22:03:57.685Z,101269.30
2018-10-01T22:09:00.876Z,101268.60
2018-10-01T22:14:04.072Z,101283.33
2018-10-01T22:19:07.254Z,101282.42
2018-10-01T22:24:10.464Z,101286.96
2018-10-01T22:29:13.644Z,101291.19
2018-10-01T22:34:16.933Z,101294.22
2018-10-01T22:39:20.228Z,101300.11
2018-10-01T22:44:23.530Z,101296.66
2018-10-01T22:49:26.750Z,101293.49
2018-10-01T22:54:29.942Z,101298.87
2018-10-01T22:59:33.179Z,101302.36
2018-10-01T23:04:36.295Z,101298.20
2018-10-01T23:09:39.497Z,101301.30
2018-10-01T23:14:42.650Z,101303.50
2018-10-01T23:19:45.835Z,101303.51
2018-10-01T23:24:49.225Z,101316.95
2018-10-01T23:29:52.350Z,101307.93
2018-10-01T23:34:55.495Z,101313.39
2018-10-01T23:39:58.664Z,101322.45
2018-10-01T23:45:01.841Z,101326.44
2018-10-01T23:50:05.272Z,101327.28
2018-10-01T23:55:08.442Z,101329.59
